sensor_id;sensor_type;location;lat;lon;timestamp;pressure;altitude;pressure_sealevel;temperature;humidity
4972;BME280;2501;51.214;6.768;2023-05-01T00:01:21;101433.38;;;11.34;68.37
4972;BME280;2501;51.214;6.768;2023-05-01T00:03:49;101432.50;;;11.35;68.63
4972;BME280;2501;51.214;6.768;2023-05-01T00:06:18;101424.69;;;11.40;68.61
4972;BME280;2501;51.214;6.768;2023-05-01T00:08:47;101429.00;;;11.35;68.67
4972;BME280;2501;51.214;6.768;2023-05-01T00:11:15;101421.06;;;11.30;69.20
4972;BME280;2501;51.214;6.768;2023-05-01T00:13:43;101417.47;;;11.22;69.29
4972;BME280;2501;51.214;6.768;2023-05-01T00:16:14;101419.03;;;11.11;69.90
4972;BME280;2501;51.214;6.768;2023-05-01T00:18:43;101417.13;;;10.99;70.53
4972;BME280;2501;51.214;6.768;2023-05-01T00:21:12;101417.44;;;11.21;70.28
4972;BME280;2501;51.214;6.768;2023-05-01T00:23:41;101414.63;;;11.10;70.78
4972;BME280;2501;51.214;6.768;2023-05-01T00:26:09;101410.09;;;10.98;70.88
4972;BME280;2501;51.214;6.768;2023-05-01T00:28:38;101408.22;;;10.91;71.63
4972;BME280;2501;51.214;6.768;2023-05-01T00:31:06;101401.50;;;11.10;71.39
4972;BME280;2501;51.214;6.768;2023-05-01T00:33:37;101406.34;;;11.41;70.39
4972;BME280;2501;51.214;6.768;2023-05-01T00:36:05;101404.75;;;11.56;68.90
4972;BME280;2501;51.214;6.768;2023-05-01T00:38:34;101396.00;;;11.55;68.54
4972;BME280;2501;51.214;6.768;2023-05-01T00:41:03;101405.56;;;11.50;68.63
4972;BME280;2501;51.214;6.768;2023-05-01T00:43:31;101391.50;;;11.48;69.04
4972;BME280;2501;51.214;6.768;2023-05-01T00:46:00;101389.78;;;11.50;68.62
4972;BME280;2501;51.214;6.768;2023-05-01T00:48:29;101393.47;;;11.64;68.05
4972;BME280;2501;51.214;6.768;2023-05-01T00:51:01;101383.84;;;11.66;67.39
4972;BME280;2501;51.214;6.768;2023-05-01T00:53:32;101379.41;;;11.62;67.46
4972;BME280;2501;51.214;6.768;2023-05-01T00:56:01;101378.47;;;11.54;67.65
4972;BME280;2501;51.214;6.768;2023-05-01T00:58:30;101377.63;;;11.57;67.83
4972;BME280;2501;51.214;6.768;2023-05-01T01:00:58;101375.72;;;11.45;68.51
4972;BME280;2501;51.214;6.768;2023-05-01T01:03:27;101367.72;;;11.36;68.75
4972;BME280;2501;51.214;6.768;2023-05-01T01:06:02;101362.47;;;11.36;68.53
4972;BME280;2501;51.214;6.768;2023-05-01T01:08:35;101364.13;;;11.28;68.83
4972;BME280;2501;51.214;6.768;2023-05-01T01:11:13;101358.19;;;11.42;68.29
4972;BME280;2501;51.214;6.768;2023-05-01T01:13:47;101360.81;;;11.44;68.21
4972;BME280;2501;51.214;6.768;2023-05-01T01:16:24;101358.34;;;11.56;67.68
4972;BME280;2501;51.214;6.768;2023-05-01T01:18:58;101355.59;;;11.47;67.59
4972;BME280;2501;51.214;6.768;2023-05-01T01:21:34;101345.81;;;11.34;67.81
4972;BME280;2501;51.214;6.768;2023-05-01T01:27:12;101346.47;;;11.16;68.53
4972;BME280;2501;51.214;6.768;2023-05-01T01:29:55;101338.66;;;11.21;68.60
4972;BME280;2501;51.214;6.768;2023-05-01T01:32:55;101348.31;;;11.22;68.64
4972;BME280;2501;51.214;6.768;2023-05-01T01:35:28;101341.34;;;11.24;68.23
4972;BME280;2501;51.214;6.768;2023-05-01T01:38:01;101331.69;;;11.23;68.34
4972;BME280;2501;51.214;6.768;2023-05-01T01:40:36;101338.72;;;11.27;68.32
4972;BME280;2501;51.214;6.768;2023-05-01T01:43:06;101331.81;;;11.35;67.57
4972;BME280;2501;51.214;6.768;2023-05-01T01:45:38;101329.25;;;11.39;67.23
4972;BME280;2501;51.214;6.768;2023-05-01T01:48:09;101319.03;;;11.65;65.75
4972;BME280;2501;51.214;6.768;2023-05-01T01:50:42;101321.50;;;11.50;66.01
4972;BME280;2501;51.214;6.768;2023-05-01T01:53:15;101323.22;;;11.48;66.54
4972;BME280;2501;51.214;6.768;2023-05-01T01:55:45;101319.91;;;11.66;67.05
4972;BME280;2501;51.214;6.768;2023-05-01T01:58:17;101307.56;;;11.56;65.94
4972;BME280;2501;51.214;6.768;2023-05-01T02:00:51;101310.03;;;11.43;66.59
4972;BME280;2501;51.214;6.768;2023-05-01T02:03:21;101309.16;;;11.44;66.55
4972;BME280;2501;51.214;6.768;2023-05-01T02:05:54;101310.94;;;11.47;66.25
4972;BME280;2501;51.214;6.768;2023-05-01T02:08:24;101303.06;;;11.47;66.69
4972;BME280;2501;51.214;6.768;2023-05-01T02:10:56;101304.84;;;11.49;66.88
4972;BME280;2501;51.214;6.768;2023-05-01T02:13:26;101297.81;;;11.47;66.90
4972;BME280;2501;51.214;6.768;2023-05-01T02:15:57;101289.88;;;11.41;66.58
4972;BME280;2501;51.214;6.768;2023-05-01T02:18:27;101292.47;;;11.36;67.16
4972;BME280;2501;51.214;6.768;2023-05-01T02:20:58;101292.34;;;11.27;67.94
4972;BME280;2501;51.214;6.768;2023-05-01T02:23:28;101292.31;;;11.26;67.81
4972;BME280;2501;51.214;6.768;2023-05-01T02:25:59;101282.69;;;11.26;67.96
4972;BME280;2501;51.214;6.768;2023-05-01T02:28:31;101280.91;;;11.22;68.09
4972;BME280;2501;51.214;6.768;2023-05-01T02:31:01;101276.84;;;11.50;67.69
4972;BME280;2501;51.214;6.768;2023-05-01T02:33:29;101274.84;;;11.28;67.84
4972;BME280;2501;51.214;6.768;2023-05-01T02:36:00;101272.13;;;11.19;68.29
4972;BME280;2501;51.214;6.768;2023-05-01T02:38:29;101266.88;;;11.19;68.27
4972;BME280;2501;51.214;6.768;2023-05-01T02:40:59;101258.91;;;11.12;68.57
4972;BME280;2501;51.214;6.768;2023-05-01T02:43:31;101261.50;;;11.08;68.66
4972;BME280;2501;51.214;6.768;2023-05-01T02:46:01;101257.94;;;11.04;69.20
4972;BME280;2501;51.214;6.768;2023-05-01T02:48:31;101266.69;;;11.03;69.42
4972;BME280;2501;51.214;6.768;2023-05-01T02:51:05;101256.19;;;11.03;69.53
4972;BME280;2501;51.214;6.768;2023-05-01T02:53:34;101251.75;;;10.98;69.75
4972;BME280;2501;51.214;6.768;2023-05-01T02:56:04;101255.16;;;10.92;69.97
4972;BME280;2501;51.214;6.768;2023-05-01T02:58:34;101246.41;;;10.92;70.37
4972;BME280;2501;51.214;6.768;2023-05-01T03:01:03;101250.75;;;10.91;70.63
4972;BME280;2501;51.214;6.768;2023-05-01T03:03:31;101248.94;;;10.84;70.92
4972;BME280;2501;51.214;6.768;2023-05-01T03:06:00;101240.38;;;10.99;71.09
4972;BME280;2501;51.214;6.768;2023-05-01T03:08:31;101230.22;;;11.31;69.92
4972;BME280;2501;51.214;6.768;2023-05-01T03:11:04;101229.81;;;10.94;70.51
4972;BME280;2501;51.214;6.768;2023-05-01T03:13:32;101227.97;;;10.84;70.96
4972;BME280;2501;51.214;6.768;2023-05-01T03:16:01;101224.50;;;10.87;71.02
4972;BME280;2501;51.214;6.768;2023-05-01T03:18:29;101233.16;;;10.81;71.16
4972;BME280;2501;51.214;6.768;2023-05-01T03:20:58;101226.19;;;10.83;71.16
4972;BME280;2501;51.214;6.768;2023-05-01T03:23:26;101226.16;;;10.81;71.03
4972;BME280;2501;51.214;6.768;2023-05-01T03:25:57;101217.31;;;10.72;71.19
4972;BME280;2501;51.214;6.768;2023-05-01T03:28:26;101212.94;;;10.71;71.11
4972;BME280;2501;51.214;6.768;2023-05-01T03:30:54;101216.44;;;10.71;71.37
4972;BME280;2501;51.214;6.768;2023-05-01T03:33:22;101205.91;;;10.68;71.01
4972;BME280;2501;51.214;6.768;2023-05-01T03:35:58;101205.91;;;10.70;71.04
4972;BME280;2501;51.214;6.768;2023-05-01T03:38:28;101205.00;;;10.66;71.20
4972;BME280;2501;51.214;6.768;2023-05-01T03:40:59;101204.13;;;10.66;71.23
4972;BME280;2501;51.214;6.768;2023-05-01T03:43:29;101204.91;;;10.60;71.19
4972;BME280;2501;51.214;6.768;2023-05-01T03:45:57;101205.78;;;10.61;71.72
4972;BME280;2501;51.214;6.768;2023-05-01T03:48:26;101204.03;;;10.60;71.51
4972;BME280;2501;51.214;6.768;2023-05-01T03:50:54;101197.91;;;10.61;71.60
4972;BME280;2501;51.214;6.768;2023-05-01T03:53:23;101197.84;;;10.55;71.95
4972;BME280;2501;51.214;6.768;2023-05-01T03:55:51;101206.59;;;10.54;71.97
4972;BME280;2501;51.214;6.768;2023-05-01T03:58:22;101189.94;;;10.52;72.26
4972;BME280;2501;51.214;6.768;2023-05-01T04:00:53;101190.81;;;10.51;72.37
4972;BME280;2501;51.214;6.768;2023-05-01T04:03:25;101193.44;;;10.52;72.39
4972;BME280;2501;51.214;6.768;2023-05-01T04:05:53;101191.63;;;10.46;72.58
4972;BME280;2501;51.214;6.768;2023-05-01T04:08:22;101189.84;;;10.45;72.68
4972;BME280;2501;51.214;6.768;2023-05-01T04:10:50;101192.59;;;10.53;72.42
4972;BME280;2501;51.214;6.768;2023-05-01T04:13:19;101195.19;;;10.52;72.72
4972;BME280;2501;51.214;6.768;2023-05-01T04:15:49;101186.38;;;10.46;72.82
4972;BME280;2501;51.214;6.768;2023-05-01T04:18:20;101188.06;;;10.43;72.96
4972;BME280;2501;51.214;6.768;2023-05-01T04:20:48;101178.47;;;10.43;72.88
4972;BME280;2501;51.214;6.768;2023-05-01T04:23:17;101175.84;;;10.45;72.84
4972;BME280;2501;51.214;6.768;2023-05-01T04:25:45;101185.47;;;10.44;73.02
4972;BME280;2501;51.214;6.768;2023-05-01T04:28:13;101186.44;;;10.51;72.69
4972;BME280;2501;51.214;6.768;2023-05-01T04:30:42;101186.41;;;10.50;72.36
4972;BME280;2501;51.214;6.768;2023-05-01T04:33:13;101182.97;;;10.52;72.22
4972;BME280;2501;51.214;6.768;2023-05-01T04:35:41;101183.84;;;10.53;72.05
4972;BME280;2501;51.214;6.768;2023-05-01T04:38:10;101184.75;;;10.55;71.86
4972;BME280;2501;51.214;6.768;2023-05-01T04:40:39;101182.13;;;10.58;71.71
4972;BME280;2501;51.214;6.768;2023-05-01T04:43:07;101183.88;;;10.56;71.68
4972;BME280;2501;51.214;6.768;2023-05-01T04:45:37;101176.91;;;10.59;71.68
4972;BME280;2501;51.214;6.768;2023-05-01T04:48:05;101176.06;;;10.60;71.64
4972;BME280;2501;51.214;6.768;2023-05-01T04:50:37;101172.63;;;10.66;71.28
4972;BME280;2501;51.214;6.768;2023-05-01T04:53:05;101179.69;;;10.70;71.20
4972;BME280;2501;51.214;6.768;2023-05-01T04:55:34;101178.00;;;10.73;71.23
4972;BME280;2501;51.214;6.768;2023-05-01T04:58:02;101178.03;;;10.78;70.91
4972;BME280;2501;51.214;6.768;2023-05-01T05:00:31;101178.88;;;10.77;70.87
4972;BME280;2501;51.214;6.768;2023-05-01T05:02:59;101179.03;;;10.88;70.62
4972;BME280;2501;51.214;6.768;2023-05-01T05:05:27;101172.06;;;10.94;70.50
4972;BME280;2501;51.214;6.768;2023-05-01T05:07:58;101180.94;;;11.02;70.28
4972;BME280;2501;51.214;6.768;2023-05-01T05:10:27;101173.16;;;11.13;69.80
4972;BME280;2501;51.214;6.768;2023-05-01T05:12:56;101173.19;;;11.16;69.18
4972;BME280;2501;51.214;6.768;2023-05-01T05:15:24;101174.13;;;11.21;68.87
4972;BME280;2501;51.214;6.768;2023-05-01T05:17:53;101181.16;;;11.27;68.57
4972;BME280;2501;51.214;6.768;2023-05-01T05:20:21;101176.81;;;11.29;68.71
4972;BME280;2501;51.214;6.768;2023-05-01T05:22:50;101173.44;;;11.39;68.11
4972;BME280;2501;51.214;6.768;2023-05-01T05:25:21;101176.97;;;11.47;67.82
4972;BME280;2501;51.214;6.768;2023-05-01T05:27:49;101183.22;;;11.57;67.47
4972;BME280;2501;51.214;6.768;2023-05-01T05:30:18;101179.75;;;11.62;66.82
4972;BME280;2501;51.214;6.768;2023-05-01T05:32:47;101184.19;;;11.69;66.61
4972;BME280;2501;51.214;6.768;2023-05-01T05:35:15;101172.06;;;11.83;65.69
4972;BME280;2501;51.214;6.768;2023-05-01T05:37:44;101179.97;;;11.85;65.50
4972;BME280;2501;51.214;6.768;2023-05-01T05:40:12;101177.41;;;11.97;65.41
4972;BME280;2501;51.214;6.768;2023-05-01T05:42:43;101181.81;;;12.00;65.22
4972;BME280;2501;51.214;6.768;2023-05-01T05:45:12;101173.94;;;12.00;65.03
4972;BME280;2501;51.214;6.768;2023-05-01T05:47:40;101179.28;;;12.10;64.99
4972;BME280;2501;51.214;6.768;2023-05-01T05:50:09;101175.81;;;12.19;64.85
4972;BME280;2501;51.214;6.768;2023-05-01T05:52:38;101169.03;;;12.67;62.85
4972;BME280;2501;51.214;6.768;2023-05-01T05:55:07;101171.56;;;12.42;63.10
4972;BME280;2501;51.214;6.768;2023-05-01T05:57:36;101168.09;;;12.52;62.48
4972;BME280;2501;51.214;6.768;2023-05-01T06:00:09;101162.81;;;12.42;62.54
4972;BME280;2501;51.214;6.768;2023-05-01T06:02:38;101168.19;;;12.81;61.46
4972;BME280;2501;51.214;6.768;2023-05-01T06:05:07;101167.34;;;12.78;60.95
4972;BME280;2501;51.214;6.768;2023-05-01T06:07:36;101167.22;;;12.46;61.32
4972;BME280;2501;51.214;6.768;2023-05-01T06:10:06;101168.94;;;12.47;61.43
4972;BME280;2501;51.214;6.768;2023-05-01T06:12:36;101182.13;;;12.50;61.18
4972;BME280;2501;51.214;6.768;2023-05-01T06:15:09;101169.88;;;12.57;60.97
4972;BME280;2501;51.214;6.768;2023-05-01T06:17:41;101178.63;;;12.54;60.75
4972;BME280;2501;51.214;6.768;2023-05-01T06:20:11;101176.03;;;12.60;60.83
4972;BME280;2501;51.214;6.768;2023-05-01T06:22:39;101176.94;;;12.68;60.52
4972;BME280;2501;51.214;6.768;2023-05-01T06:25:09;101166.50;;;13.00;59.74
4972;BME280;2501;51.214;6.768;2023-05-01T06:27:37;101166.53;;;13.03;58.75
4972;BME280;2501;51.214;6.768;2023-05-01T06:30:10;101165.66;;;13.04;58.91
4972;BME280;2501;51.214;6.768;2023-05-01T06:32:39;101173.53;;;12.92;59.82
4972;BME280;2501;51.214;6.768;2023-05-01T06:35:09;101164.72;;;12.87;59.52
4972;BME280;2501;51.214;6.768;2023-05-01T06:37:37;101164.72;;;12.79;59.44
4972;BME280;2501;51.214;6.768;2023-05-01T06:40:07;101168.28;;;12.97;59.18
4972;BME280;2501;51.214;6.768;2023-05-01T06:42:36;101163.91;;;13.09;59.05
4972;BME280;2501;51.214;6.768;2023-05-01T06:45:09;101167.41;;;13.05;58.91
4972;BME280;2501;51.214;6.768;2023-05-01T06:47:37;101161.25;;;12.99;58.82
4972;BME280;2501;51.214;6.768;2023-05-01T06:50:08;101166.53;;;13.05;58.73
4972;BME280;2501;51.214;6.768;2023-05-01T06:52:37;101163.03;;;13.10;58.64
4972;BME280;2501;51.214;6.768;2023-05-01T06:55:06;101156.91;;;13.10;58.60
4972;BME280;2501;51.214;6.768;2023-05-01T06:57:34;101156.91;;;13.17;58.37
4972;BME280;2501;51.214;6.768;2023-05-01T07:00:05;101158.72;;;13.46;57.51
4972;BME280;2501;51.214;6.768;2023-05-01T07:02:37;101156.97;;;13.40;57.84
4972;BME280;2501;51.214;6.768;2023-05-01T07:05:06;101148.16;;;13.20;57.94
4972;BME280;2501;51.214;6.768;2023-05-01T07:07:34;101157.81;;;13.35;57.85
4972;BME280;2501;51.214;6.768;2023-05-01T07:10:04;101155.19;;;13.39;57.96
4972;BME280;2501;51.214;6.768;2023-05-01T07:12:32;101156.09;;;13.49;57.82
4972;BME280;2501;51.214;6.768;2023-05-01T07:15:00;101154.34;;;13.48;57.69
4972;BME280;2501;51.214;6.768;2023-05-01T07:17:29;101153.44;;;13.56;57.67
4972;BME280;2501;51.214;6.768;2023-05-01T07:20:00;101142.91;;;13.56;57.38
4972;BME280;2501;51.214;6.768;2023-05-01T07:22:29;101148.19;;;13.66;57.22
4972;BME280;2501;51.214;6.768;2023-05-01T07:24:58;101144.66;;;13.79;56.91
4972;BME280;2501;51.214;6.768;2023-05-01T07:27:28;101143.78;;;13.75;57.03
4972;BME280;2501;51.214;6.768;2023-05-01T07:29:56;101151.69;;;13.60;57.20
4972;BME280;2501;51.214;6.768;2023-05-01T07:32:25;101142.00;;;13.92;56.71
4972;BME280;2501;51.214;6.768;2023-05-01T07:34:53;101141.16;;;13.84;57.11
4972;BME280;2501;51.214;6.768;2023-05-01T07:37:24;101136.66;;;14.23;56.33
4972;BME280;2501;51.214;6.768;2023-05-01T07:39:53;101140.06;;;14.58;54.67
4972;BME280;2501;51.214;6.768;2023-05-01T07:42:26;101141.91;;;14.26;55.73
4972;BME280;2501;51.214;6.768;2023-05-01T07:44:55;101147.25;;;14.17;56.03
4972;BME280;2501;51.214;6.768;2023-05-01T07:47:23;101135.75;;;14.30;55.88
4972;BME280;2501;51.214;6.768;2023-05-01T07:49:52;101134.69;;;14.86;54.90
4972;BME280;2501;51.214;6.768;2023-05-01T07:52:20;101127.72;;;14.67;54.43
4972;BME280;2501;51.214;6.768;2023-05-01T07:54:52;101130.28;;;14.85;54.20
4972;BME280;2501;51.214;6.768;2023-05-01T07:57:20;101125.69;;;15.14;53.52
4972;BME280;2501;51.214;6.768;2023-05-01T07:59:52;101133.59;;;15.14;53.52
4972;BME280;2501;51.214;6.768;2023-05-01T08:02:21;101129.59;;;14.42;54.78
4972;BME280;2501;51.214;6.768;2023-05-01T08:04:50;101136.53;;;14.66;55.18
4972;BME280;2501;51.214;6.768;2023-05-01T08:07:18;101138.91;;;15.11;54.26
4972;BME280;2501;51.214;6.768;2023-05-01T08:09:47;101140.97;;;14.57;55.01
4972;BME280;2501;51.214;6.768;2023-05-01T08:12:18;101136.34;;;14.99;54.02
4972;BME280;2501;51.214;6.768;2023-05-01T08:14:48;101144.78;;;15.56;52.30
4972;BME280;2501;51.214;6.768;2023-05-01T08:17:17;101142.94;;;15.65;52.56
4972;BME280;2501;51.214;6.768;2023-05-01T08:19:45;101143.41;;;14.95;53.31
4972;BME280;2501;51.214;6.768;2023-05-01T08:22:14;101136.47;;;14.79;54.33
4972;BME280;2501;51.214;6.768;2023-05-01T08:24:42;101137.78;;;15.46;52.90
4972;BME280;2501;51.214;6.768;2023-05-01T08:27:11;101132.19;;;15.82;52.06
4972;BME280;2501;51.214;6.768;2023-05-01T08:29:42;101131.97;;;16.07;51.27
4972;BME280;2501;51.214;6.768;2023-05-01T08:32:11;101128.78;;;16.52;50.21
4972;BME280;2501;51.214;6.768;2023-05-01T08:34:39;101136.84;;;15.53;52.54
4972;BME280;2501;51.214;6.768;2023-05-01T08:37:07;101139.97;;;15.99;51.29
4972;BME280;2501;51.214;6.768;2023-05-01T08:39:36;101133.03;;;15.89;51.79
4972;BME280;2501;51.214;6.768;2023-05-01T08:42:05;101131.59;;;15.47;52.55
4972;BME280;2501;51.214;6.768;2023-05-01T08:44:37;101131.50;;;15.60;52.60
4972;BME280;2501;51.214;6.768;2023-05-01T08:47:16;101138.78;;;15.29;52.94
4972;BME280;2501;51.214;6.768;2023-05-01T08:49:44;101142.19;;;15.44;53.11
4972;BME280;2501;51.214;6.768;2023-05-01T08:52:15;101135.09;;;15.49;52.87
4972;BME280;2501;51.214;6.768;2023-05-01T08:54:44;101126.09;;;16.55;50.70
4972;BME280;2501;51.214;6.768;2023-05-01T08:57:14;101119.22;;;16.42;50.18
4972;BME280;2501;51.214;6.768;2023-05-01T08:59:43;101116.66;;;16.31;50.18
4972;BME280;2501;51.214;6.768;2023-05-01T09:02:15;101128.13;;;16.32;50.55
4972;BME280;2501;51.214;6.768;2023-05-01T09:04:44;101131.34;;;16.58;49.98
4972;BME280;2501;51.214;6.768;2023-05-01T09:07:14;101127.41;;;16.19;51.05
4972;BME280;2501;51.214;6.768;2023-05-01T09:09:43;101130.88;;;16.26;51.42
4972;BME280;2501;51.214;6.768;2023-05-01T09:12:21;101124.75;;;16.21;51.90
4972;BME280;2501;51.214;6.768;2023-05-01T09:14:51;101128.66;;;16.63;51.33
4972;BME280;2501;51.214;6.768;2023-05-01T09:17:22;101115.13;;;16.84;49.52
4972;BME280;2501;51.214;6.768;2023-05-01T09:19:52;101122.59;;;16.53;50.35
4972;BME280;2501;51.214;6.768;2023-05-01T09:22:20;101118.78;;;17.34;49.10
4972;BME280;2501;51.214;6.768;2023-05-01T09:24:49;101118.75;;;17.37;49.62
4972;BME280;2501;51.214;6.768;2023-05-01T09:27:17;101116.44;;;16.50;50.74
4972;BME280;2501;51.214;6.768;2023-05-01T09:29:46;101112.78;;;17.78;49.07
4972;BME280;2501;51.214;6.768;2023-05-01T09:32:16;101118.41;;;17.03;50.17
4972;BME280;2501;51.214;6.768;2023-05-01T09:34:50;101118.41;;;17.03;50.48
4972;BME280;2501;51.214;6.768;2023-05-01T09:37:27;101113.84;;;17.68;48.71
4972;BME280;2501;51.214;6.768;2023-05-01T09:40:04;101104.91;;;17.73;48.34
4972;BME280;2501;51.214;6.768;2023-05-01T09:42:35;101103.94;;;17.78;47.52
4972;BME280;2501;51.214;6.768;2023-05-01T09:45:12;101104.31;;;18.05;47.64
4972;BME280;2501;51.214;6.768;2023-05-01T09:47:44;101113.66;;;17.25;48.89
4972;BME280;2501;51.214;6.768;2023-05-01T09:50:28;101106.88;;;17.05;49.06
4972;BME280;2501;51.214;6.768;2023-05-01T09:52:57;101114.22;;;16.87;49.73
4972;BME280;2501;51.214;6.768;2023-05-01T09:55:25;101112.88;;;17.72;48.24
4972;BME280;2501;51.214;6.768;2023-05-01T09:57:54;101105.34;;;17.48;48.04
4972;BME280;2501;51.214;6.768;2023-05-01T10:00:23;101113.75;;;17.74;47.97
4972;BME280;2501;51.214;6.768;2023-05-01T10:02:52;101113.88;;;17.11;49.05
4972;BME280;2501;51.214;6.768;2023-05-01T10:05:23;101103.84;;;17.31;49.50
4972;BME280;2501;51.214;6.768;2023-05-01T10:07:56;101109.22;;;17.25;49.77
4972;BME280;2501;51.214;6.768;2023-05-01T10:10:25;101101.84;;;17.46;48.96
4972;BME280;2501;51.214;6.768;2023-05-01T10:12:54;101105.50;;;17.89;47.59
4972;BME280;2501;51.214;6.768;2023-05-01T10:15:22;101101.16;;;16.75;49.97
4972;BME280;2501;51.214;6.768;2023-05-01T10:18:03;101095.81;;;18.33;46.82
4972;BME280;2501;51.214;6.768;2023-05-01T10:20:34;101099.66;;;17.69;47.13
4972;BME280;2501;51.214;6.768;2023-05-01T10:23:03;101104.84;;;17.77;48.10
4972;BME280;2501;51.214;6.768;2023-05-01T10:25:31;101102.78;;;17.92;47.52
4972;BME280;2501;51.214;6.768;2023-05-01T10:28:02;101107.28;;;17.87;47.23
4972;BME280;2501;51.214;6.768;2023-05-01T10:30:31;101095.88;;;18.28;47.08
4972;BME280;2501;51.214;6.768;2023-05-01T10:32:59;101098.59;;;17.81;48.02
4972;BME280;2501;51.214;6.768;2023-05-01T10:35:31;101095.22;;;19.00;45.53
4972;BME280;2501;51.214;6.768;2023-05-01T10:38:06;101091.88;;;19.65;43.79
4972;BME280;2501;51.214;6.768;2023-05-01T10:40:43;101079.06;;;20.11;41.84
4972;BME280;2501;51.214;6.768;2023-05-01T10:43:29;101077.47;;;19.73;41.87
4972;BME280;2501;51.214;6.768;2023-05-01T10:46:27;101082.63;;;19.08;43.30
4972;BME280;2501;51.214;6.768;2023-05-01T10:48:57;101087.47;;;19.64;42.88
4972;BME280;2501;51.214;6.768;2023-05-01T10:51:26;101078.94;;;19.14;43.86
4972;BME280;2501;51.214;6.768;2023-05-01T10:54:24;101078.16;;;18.72;44.86
4972;BME280;2501;51.214;6.768;2023-05-01T10:56:54;101078.50;;;19.32;44.31
4972;BME280;2501;51.214;6.768;2023-05-01T10:59:23;101077.13;;;19.16;44.57
4972;BME280;2501;51.214;6.768;2023-05-01T11:01:52;101074.44;;;19.55;43.67
4972;BME280;2501;51.214;6.768;2023-05-01T11:04:48;101067.03;;;19.66;42.89
4972;BME280;2501;51.214;6.768;2023-05-01T11:07:19;101057.13;;;20.03;42.24
4972;BME280;2501;51.214;6.768;2023-05-01T11:09:52;101058.53;;;19.84;42.48
4972;BME280;2501;51.214;6.768;2023-05-01T11:12:48;101055.53;;;19.96;42.82
4972;BME280;2501;51.214;6.768;2023-05-01T11:15:31;101047.41;;;20.32;41.42
4972;BME280;2501;51.214;6.768;2023-05-01T11:18:00;101045.94;;;20.22;41.71
4972;BME280;2501;51.214;6.768;2023-05-01T11:20:45;101051.28;;;19.91;42.66
4972;BME280;2501;51.214;6.768;2023-05-01T11:23:19;101046.13;;;19.85;43.49
4972;BME280;2501;51.214;6.768;2023-05-01T11:26:00;101051.72;;;20.37;41.83
4972;BME280;2501;51.214;6.768;2023-05-01T11:28:30;101052.78;;;19.99;43.00
4972;BME280;2501;51.214;6.768;2023-05-01T11:30:59;101042.53;;;20.16;42.43
4972;BME280;2501;51.214;6.768;2023-05-01T11:33:29;101055.47;;;19.67;43.18
4972;BME280;2501;51.214;6.768;2023-05-01T11:35:59;101052.47;;;19.45;44.50
4972;BME280;2501;51.214;6.768;2023-05-01T11:38:31;101053.44;;;19.05;44.82
4972;BME280;2501;51.214;6.768;2023-05-01T11:41:02;101048.75;;;19.17;43.29
4972;BME280;2501;51.214;6.768;2023-05-01T11:43:31;101050.47;;;19.19;42.83
4972;BME280;2501;51.214;6.768;2023-05-01T11:46:03;101049.22;;;19.34;41.67
4972;BME280;2501;51.214;6.768;2023-05-01T11:48:31;101041.59;;;19.20;42.48
4972;BME280;2501;51.214;6.768;2023-05-01T11:51:13;101042.63;;;19.13;42.57
4972;BME280;2501;51.214;6.768;2023-05-01T11:53:42;101044.44;;;19.46;41.44
4972;BME280;2501;51.214;6.768;2023-05-01T11:56:22;101035.88;;;19.69;40.70
4972;BME280;2501;51.214;6.768;2023-05-01T11:58:50;101036.06;;;19.94;39.77
4972;BME280;2501;51.214;6.768;2023-05-01T12:01:20;101037.25;;;19.84;38.92
4972;BME280;2501;51.214;6.768;2023-05-01T12:03:48;101028.72;;;20.63;37.64
4972;BME280;2501;51.214;6.768;2023-05-01T12:06:17;101031.53;;;19.98;36.62
4972;BME280;2501;51.214;6.768;2023-05-01T12:08:47;101028.84;;;20.29;36.07
4972;BME280;2501;51.214;6.768;2023-05-01T12:11:18;101027.41;;;19.55;36.74
4972;BME280;2501;51.214;6.768;2023-05-01T12:13:51;101021.78;;;20.28;37.76
4972;BME280;2501;51.214;6.768;2023-05-01T12:16:20;101018.22;;;20.86;36.43
4972;BME280;2501;51.214;6.768;2023-05-01T12:18:49;101019.47;;;21.02;35.74
4972;BME280;2501;51.214;6.768;2023-05-01T12:21:18;101021.63;;;20.91;36.26
4972;BME280;2501;51.214;6.768;2023-05-01T12:23:47;101020.09;;;21.10;35.37
4972;BME280;2501;51.214;6.768;2023-05-01T12:26:17;101012.16;;;21.35;34.58
4972;BME280;2501;51.214;6.768;2023-05-01T12:28:55;101006.66;;;21.40;34.36
4972;BME280;2501;51.214;6.768;2023-05-01T12:31:25;101005.91;;;21.36;35.04
4972;BME280;2501;51.214;6.768;2023-05-01T12:33:55;101005.84;;;20.26;37.18
4972;BME280;2501;51.214;6.768;2023-05-01T12:36:24;101005.34;;;20.13;37.15
4972;BME280;2501;51.214;6.768;2023-05-01T12:38:55;101000.59;;;20.54;36.52
4972;BME280;2501;51.214;6.768;2023-05-01T12:41:38;101011.41;;;20.77;36.32
4972;BME280;2501;51.214;6.768;2023-05-01T12:44:22;101006.06;;;20.77;37.11
4972;BME280;2501;51.214;6.768;2023-05-01T12:46:55;101008.94;;;20.71;37.32
4972;BME280;2501;51.214;6.768;2023-05-01T12:49:27;101006.69;;;19.66;39.72
4972;BME280;2501;51.214;6.768;2023-05-01T12:51:57;101028.94;;;18.93;43.13
4972;BME280;2501;51.214;6.768;2023-05-01T12:54:29;101023.69;;;18.53;44.53
4972;BME280;2501;51.214;6.768;2023-05-01T12:57:04;101022.63;;;18.61;44.46
4972;BME280;2501;51.214;6.768;2023-05-01T12:59:36;101017.88;;;18.35;43.42
4972;BME280;2501;51.214;6.768;2023-05-01T13:02:06;101027.50;;;18.39;44.45
4972;BME280;2501;51.214;6.768;2023-05-01T13:04:36;101032.63;;;18.05;44.80
4972;BME280;2501;51.214;6.768;2023-05-01T13:07:10;101034.22;;;18.16;44.34
4972;BME280;2501;51.214;6.768;2023-05-01T13:09:39;101036.03;;;18.14;44.33
4972;BME280;2501;51.214;6.768;2023-05-01T13:12:17;101046.06;;;17.99;44.01
4972;BME280;2501;51.214;6.768;2023-05-01T13:14:49;101052.75;;;17.72;45.97
4972;BME280;2501;51.214;6.768;2023-05-01T13:17:22;101064.41;;;17.62;46.84
4972;BME280;2501;51.214;6.768;2023-05-01T13:19:54;101067.34;;;17.46;46.98
4972;BME280;2501;51.214;6.768;2023-05-01T13:22:30;101061.13;;;16.94;48.62
4972;BME280;2501;51.214;6.768;2023-05-01T13:25:01;101065.66;;;16.86;49.58
4972;BME280;2501;51.214;6.768;2023-05-01T13:27:30;101070.16;;;16.80;52.22
4972;BME280;2501;51.214;6.768;2023-05-01T13:30:01;101062.78;;;16.39;54.64
4972;BME280;2501;51.214;6.768;2023-05-01T13:32:30;101071.84;;;16.18;58.86